sensor_id;sensor_type;location;lat;lon;timestamp;temperature;humidity
12622;DHT22;6376;48.182;-1.644;2022-12-18T00:00:47;7.50;64.60
12622;DHT22;6376;48.182;-1.644;2022-12-18T00:03:14;7.50;64.40
12622;DHT22;6376;48.182;-1.644;2022-12-18T00:05:50;7.50;64.40
12622;DHT22;6376;48.182;-1.644;2022-12-18T00:08:16;7.50;64.70
12622;DHT22;6376;48.182;-1.644;2022-12-18T00:10:43;7.50;64.70
12622;DHT22;6376;48.182;-1.644;2022-12-18T00:13:09;7.50;64.90
12622;DHT22;6376;48.182;-1.644;2022-12-18T00:15:35;7.50;64.60
12622;DHT22;6376;48.182;-1.644;2022-12-18T00:18:01;7.50;64.70
12622;DHT22;6376;48.182;-1.644;2022-12-18T00:20:27;7.50;64.90
12622;DHT22;6376;48.182;-1.644;2022-12-18T00:22:53;7.50;64.70
12622;DHT22;6376;48.182;-1.644;2022-12-18T00:25:19;7.50;64.70
12622;DHT22;6376;48.182;-1.644;2022-12-18T00:27:44;7.50;64.50
12622;DHT22;6376;48.182;-1.644;2022-12-18T00:30:11;7.50;64.70
12622;DHT22;6376;48.182;-1.644;2022-12-18T00:32:36;7.50;64.80
12622;DHT22;6376;48.182;-1.644;2022-12-18T00:35:03;7.50;64.70
12622;DHT22;6376;48.182;-1.644;2022-12-18T00:37:29;7.50;64.60
12622;DHT22;6376;48.182;-1.644;2022-12-18T00:39:54;7.50;64.60
12622;DHT22;6376;48.182;-1.644;2022-12-18T00:42:20;7.50;64.90
12622;DHT22;6376;48.182;-1.644;2022-12-18T00:45:04;7.50;64.60
12622;DHT22;6376;48.182;-1.644;2022-12-18T00:47:30;7.50;64.60
12622;DHT22;6376;48.182;-1.644;2022-12-18T00:49:56;7.40;64.60
12622;DHT22;6376;48.182;-1.644;2022-12-18T00:52:21;7.40;64.70
12622;DHT22;6376;48.182;-1.644;2022-12-18T00:54:47;7.40;64.70
12622;DHT22;6376;48.182;-1.644;2022-12-18T00:57:13;7.50;64.80
12622;DHT22;6376;48.182;-1.644;2022-12-18T00:59:38;7.50;64.90
12622;DHT22;6376;48.182;-1.644;2022-12-18T01:02:04;7.40;64.70
12622;DHT22;6376;48.182;-1.644;2022-12-18T01:04:31;7.40;64.70
12622;DHT22;6376;48.182;-1.644;2022-12-18T01:06:58;7.40;64.40
12622;DHT22;6376;48.182;-1.644;2022-12-18T01:09:23;7.40;64.60
12622;DHT22;6376;48.182;-1.644;2022-12-18T01:11:49;7.40;64.70
12622;DHT22;6376;48.182;-1.644;2022-12-18T01:14:15;7.40;64.80
12622;DHT22;6376;48.182;-1.644;2022-12-18T01:16:40;7.50;64.80
12622;DHT22;6376;48.182;-1.644;2022-12-18T01:19:06;7.40;64.80
12622;DHT22;6376;48.182;-1.644;2022-12-18T01:21:32;7.50;64.90
12622;DHT22;6376;48.182;-1.644;2022-12-18T01:23:57;7.40;64.50
12622;DHT22;6376;48.182;-1.644;2022-12-18T01:26:25;7.40;64.90
12622;DHT22;6376;48.182;-1.644;2022-12-18T01:28:51;7.40;64.70
12622;DHT22;6376;48.182;-1.644;2022-12-18T01:33:47;7.40;64.80
12622;DHT22;6376;48.182;-1.644;2022-12-18T01:36:22;7.40;64.80
12622;DHT22;6376;48.182;-1.644;2022-12-18T01:38:48;7.40;64.70
12622;DHT22;6376;48.182;-1.644;2022-12-18T01:41:15;7.40;64.80
12622;DHT22;6376;48.182;-1.644;2022-12-18T01:43:46;7.40;64.70
12622;DHT22;6376;48.182;-1.644;2022-12-18T01:46:13;7.40;64.70
12622;DHT22;6376;48.182;-1.644;2022-12-18T01:48:39;7.40;64.70
12622;DHT22;6376;48.182;-1.644;2022-12-18T01:51:06;7.40;64.70
12622;DHT22;6376;48.182;-1.644;2022-12-18T01:53:32;7.40;64.80
12622;DHT22;6376;48.182;-1.644;2022-12-18T01:55:59;7.40;64.70
12622;DHT22;6376;48.182;-1.644;2022-12-18T01:58:32;7.40;64.60
12622;DHT22;6376;48.182;-1.644;2022-12-18T02:01:01;7.40;65.00
12622;DHT22;6376;48.182;-1.644;2022-12-18T02:03:26;7.30;64.80
12622;DHT22;6376;48.182;-1.644;2022-12-18T02:09:04;7.40;64.90
12622;DHT22;6376;48.182;-1.644;2022-12-18T02:14:38;7.40;64.90
12622;DHT22;6376;48.182;-1.644;2022-12-18T02:25:38;7.40;64.80
12622;DHT22;6376;48.182;-1.644;2022-12-18T02:28:09;7.30;64.80
12622;DHT22;6376;48.182;-1.644;2022-12-18T02:30:37;7.40;64.90
12622;DHT22;6376;48.182;-1.644;2022-12-18T02:33:07;7.40;64.90
12622;DHT22;6376;48.182;-1.644;2022-12-18T02:35:35;7.40;64.70
12622;DHT22;6376;48.182;-1.644;2022-12-18T02:38:03;7.40;64.70
12622;DHT22;6376;48.182;-1.644;2022-12-18T02:40:30;7.30;64.70
12622;DHT22;6376;48.182;-1.644;2022-12-18T02:43:08;7.40;64.90
12622;DHT22;6376;48.182;-1.644;2022-12-18T02:45:34;7.40;64.90
12622;DHT22;6376;48.182;-1.644;2022-12-18T02:48:00;7.40;64.70
12622;DHT22;6376;48.182;-1.644;2022-12-18T02:50:52;7.40;64.60
12622;DHT22;6376;48.182;-1.644;2022-12-18T02:53:45;7.40;64.60
12622;DHT22;6376;48.182;-1.644;2022-12-18T02:56:30;7.30;64.70
12622;DHT22;6376;48.182;-1.644;2022-12-18T03:01:46;7.30;64.60
12622;DHT22;6376;48.182;-1.644;2022-12-18T03:04:20;7.30;64.90
12622;DHT22;6376;48.182;-1.644;2022-12-18T03:06:50;7.30;64.80
12622;DHT22;6376;48.182;-1.644;2022-12-18T03:09:22;7.30;64.80
12622;DHT22;6376;48.182;-1.644;2022-12-18T03:12:10;7.30;64.80
12622;DHT22;6376;48.182;-1.644;2022-12-18T03:15:09;7.30;64.80
12622;DHT22;6376;48.182;-1.644;2022-12-18T03:17:37;7.30;64.70
12622;DHT22;6376;48.182;-1.644;2022-12-18T03:20:12;7.30;64.70
12622;DHT22;6376;48.182;-1.644;2022-12-18T03:22:38;7.30;64.60
12622;DHT22;6376;48.182;-1.644;2022-12-18T03:25:11;7.30;64.70
12622;DHT22;6376;48.182;-1.644;2022-12-18T03:27:43;7.30;64.70
12622;DHT22;6376;48.182;-1.644;2022-12-18T03:30:13;7.30;64.90
12622;DHT22;6376;48.182;-1.644;2022-12-18T03:33:07;7.30;64.80
12622;DHT22;6376;48.182;-1.644;2022-12-18T03:35:39;7.30;64.90
12622;DHT22;6376;48.182;-1.644;2022-12-18T03:38:06;7.30;64.70
12622;DHT22;6376;48.182;-1.644;2022-12-18T03:46:02;7.30;64.60
12622;DHT22;6376;48.182;-1.644;2022-12-18T03:48:44;7.30;64.70
12622;DHT22;6376;48.182;-1.644;2022-12-18T03:51:26;7.30;64.70
12622;DHT22;6376;48.182;-1.644;2022-12-18T03:53:58;7.30;64.80
12622;DHT22;6376;48.182;-1.644;2022-12-18T03:56:28;7.30;64.70
12622;DHT22;6376;48.182;-1.644;2022-12-18T03:58:55;7.40;64.90
12622;DHT22;6376;48.182;-1.644;2022-12-18T04:01:28;7.30;64.70
12622;DHT22;6376;48.182;-1.644;2022-12-18T04:03:57;7.40;64.90
12622;DHT22;6376;48.182;-1.644;2022-12-18T04:06:24;7.30;64.80
12622;DHT22;6376;48.182;-1.644;2022-12-18T04:08:50;7.40;64.90
12622;DHT22;6376;48.182;-1.644;2022-12-18T04:11:16;7.30;64.70
12622;DHT22;6376;48.182;-1.644;2022-12-18T04:13:42;7.40;64.80
12622;DHT22;6376;48.182;-1.644;2022-12-18T04:16:09;7.30;64.70
12622;DHT22;6376;48.182;-1.644;2022-12-18T04:18:35;7.40;65.00
12622;DHT22;6376;48.182;-1.644;2022-12-18T04:21:01;7.40;64.90
12622;DHT22;6376;48.182;-1.644;2022-12-18T04:23:27;7.40;64.90
12622;DHT22;6376;48.182;-1.644;2022-12-18T04:25:53;7.40;64.90
12622;DHT22;6376;48.182;-1.644;2022-12-18T04:28:19;7.30;64.80
12622;DHT22;6376;48.182;-1.644;2022-12-18T04:30:45;7.40;64.90
12622;DHT22;6376;48.182;-1.644;2022-12-18T04:33:11;7.30;64.50
12622;DHT22;6376;48.182;-1.644;2022-12-18T04:35:39;7.40;64.90
12622;DHT22;6376;48.182;-1.644;2022-12-18T04:38:06;7.40;64.80
12622;DHT22;6376;48.182;-1.644;2022-12-18T04:40:34;7.30;64.80
12622;DHT22;6376;48.182;-1.644;2022-12-18T04:42:59;7.30;64.60
12622;DHT22;6376;48.182;-1.644;2022-12-18T04:45:25;7.30;64.90
12622;DHT22;6376;48.182;-1.644;2022-12-18T04:47:50;7.30;64.80
12622;DHT22;6376;48.182;-1.644;2022-12-18T04:50:16;7.30;64.70
12622;DHT22;6376;48.182;-1.644;2022-12-18T04:52:42;7.30;64.70
12622;DHT22;6376;48.182;-1.644;2022-12-18T04:55:08;7.30;64.90
12622;DHT22;6376;48.182;-1.644;2022-12-18T04:57:33;7.30;64.70
12622;DHT22;6376;48.182;-1.644;2022-12-18T04:59:59;7.30;64.70
12622;DHT22;6376;48.182;-1.644;2022-12-18T05:02:25;7.30;64.90
12622;DHT22;6376;48.182;-1.644;2022-12-18T05:04:50;7.40;65.00
12622;DHT22;6376;48.182;-1.644;2022-12-18T05:07:16;7.30;64.70
12622;DHT22;6376;48.182;-1.644;2022-12-18T05:09:41;7.30;64.70
12622;DHT22;6376;48.182;-1.644;2022-12-18T05:12:07;7.30;64.60
12622;DHT22;6376;48.182;-1.644;2022-12-18T05:14:33;7.30;64.90
12622;DHT22;6376;48.182;-1.644;2022-12-18T05:16:58;7.30;64.60
12622;DHT22;6376;48.182;-1.644;2022-12-18T05:19:24;7.30;64.70
12622;DHT22;6376;48.182;-1.644;2022-12-18T05:21:50;7.30;64.90
12622;DHT22;6376;48.182;-1.644;2022-12-18T05:24:15;7.30;64.80
12622;DHT22;6376;48.182;-1.644;2022-12-18T05:26:41;7.40;64.90
12622;DHT22;6376;48.182;-1.644;2022-12-18T05:29:06;7.40;64.90
12622;DHT22;6376;48.182;-1.644;2022-12-18T05:31:32;7.30;64.90
12622;DHT22;6376;48.182;-1.644;2022-12-18T05:33:58;7.40;64.90
12622;DHT22;6376;48.182;-1.644;2022-12-18T05:36:23;7.40;64.90
12622;DHT22;6376;48.182;-1.644;2022-12-18T05:38:49;7.30;64.90
12622;DHT22;6376;48.182;-1.644;2022-12-18T05:41:15;7.40;64.90
12622;DHT22;6376;48.182;-1.644;2022-12-18T05:43:40;7.40;65.00
12622;DHT22;6376;48.182;-1.644;2022-12-18T05:46:15;7.30;64.90
12622;DHT22;6376;48.182;-1.644;2022-12-18T05:48:41;7.30;64.90
12622;DHT22;6376;48.182;-1.644;2022-12-18T05:51:10;7.30;64.90
12622;DHT22;6376;48.182;-1.644;2022-12-18T05:53:37;7.30;64.90
12622;DHT22;6376;48.182;-1.644;2022-12-18T05:56:05;7.30;65.00
12622;DHT22;6376;48.182;-1.644;2022-12-18T05:58:31;7.40;64.80
12622;DHT22;6376;48.182;-1.644;2022-12-18T06:00:57;7.30;64.90
12622;DHT22;6376;48.182;-1.644;2022-12-18T06:03:23;7.30;64.90
12622;DHT22;6376;48.182;-1.644;2022-12-18T06:05:49;7.40;65.00
12622;DHT22;6376;48.182;-1.644;2022-12-18T06:08:15;7.30;64.70
12622;DHT22;6376;48.182;-1.644;2022-12-18T06:10:41;7.30;65.00
12622;DHT22;6376;48.182;-1.644;2022-12-18T06:13:07;7.40;65.00
12622;DHT22;6376;48.182;-1.644;2022-12-18T06:15:35;7.30;64.90
12622;DHT22;6376;48.182;-1.644;2022-12-18T06:18:01;7.30;65.00
12622;DHT22;6376;48.182;-1.644;2022-12-18T06:20:26;7.30;65.00
12622;DHT22;6376;48.182;-1.644;2022-12-18T06:22:52;7.30;64.90
12622;DHT22;6376;48.182;-1.644;2022-12-18T06:25:18;7.40;65.10
12622;DHT22;6376;48.182;-1.644;2022-12-18T06:27:44;7.30;65.00
12622;DHT22;6376;48.182;-1.644;2022-12-18T06:30:10;7.30;65.00
12622;DHT22;6376;48.182;-1.644;2022-12-18T06:32:35;7.40;65.00
12622;DHT22;6376;48.182;-1.644;2022-12-18T06:35:01;7.30;65.10
12622;DHT22;6376;48.182;-1.644;2022-12-18T06:37:27;7.40;65.10
12622;DHT22;6376;48.182;-1.644;2022-12-18T06:39:54;7.40;65.10
12622;DHT22;6376;48.182;-1.644;2022-12-18T06:42:19;7.40;65.10
12622;DHT22;6376;48.182;-1.644;2022-12-18T06:44:47;7.30;65.00
12622;DHT22;6376;48.182;-1.644;2022-12-18T06:47:13;7.30;65.20
12622;DHT22;6376;48.182;-1.644;2022-12-18T06:49:39;7.30;66.00
12622;DHT22;6376;48.182;-1.644;2022-12-18T06:52:04;7.30;65.20
12622;DHT22;6376;48.182;-1.644;2022-12-18T06:54:30;7.30;65.20
12622;DHT22;6376;48.182;-1.644;2022-12-18T06:56:56;7.40;65.20
12622;DHT22;6376;48.182;-1.644;2022-12-18T06:59:21;7.30;65.20
12622;DHT22;6376;48.182;-1.644;2022-12-18T07:01:47;7.30;66.20
12622;DHT22;6376;48.182;-1.644;2022-12-18T07:04:12;7.40;65.40
12622;DHT22;6376;48.182;-1.644;2022-12-18T07:06:38;7.40;65.20
12622;DHT22;6376;48.182;-1.644;2022-12-18T07:09:04;7.40;65.30
12622;DHT22;6376;48.182;-1.644;2022-12-18T07:11:31;7.30;65.30
12622;DHT22;6376;48.182;-1.644;2022-12-18T07:13:57;7.40;65.40
12622;DHT22;6376;48.182;-1.644;2022-12-18T07:16:23;7.30;65.30
12622;DHT22;6376;48.182;-1.644;2022-12-18T07:18:48;7.30;65.40
12622;DHT22;6376;48.182;-1.644;2022-12-18T07:21:17;7.40;65.60
12622;DHT22;6376;48.182;-1.644;2022-12-18T07:23:43;7.30;65.50
12622;DHT22;6376;48.182;-1.644;2022-12-18T07:26:12;7.30;65.50
12622;DHT22;6376;48.182;-1.644;2022-12-18T07:28:39;7.30;65.50
12622;DHT22;6376;48.182;-1.644;2022-12-18T07:31:07;7.40;65.50
12622;DHT22;6376;48.182;-1.644;2022-12-18T07:33:33;7.40;65.50
12622;DHT22;6376;48.182;-1.644;2022-12-18T07:36:03;7.40;65.50
12622;DHT22;6376;48.182;-1.644;2022-12-18T07:38:30;7.40;65.60
12622;DHT22;6376;48.182;-1.644;2022-12-18T07:41:22;7.40;65.60
12622;DHT22;6376;48.182;-1.644;2022-12-18T07:43:48;7.40;65.60
12622;DHT22;6376;48.182;-1.644;2022-12-18T07:46:15;7.40;65.60
12622;DHT22;6376;48.182;-1.644;2022-12-18T07:48:44;7.40;65.70
12622;DHT22;6376;48.182;-1.644;2022-12-18T07:51:10;7.40;65.60
12622;DHT22;6376;48.182;-1.644;2022-12-18T07:53:36;7.40;65.70
12622;DHT22;6376;48.182;-1.644;2022-12-18T07:56:08;7.40;65.70
12622;DHT22;6376;48.182;-1.644;2022-12-18T07:58:35;7.30;65.70
12622;DHT22;6376;48.182;-1.644;2022-12-18T08:01:06;7.40;65.80
12622;DHT22;6376;48.182;-1.644;2022-12-18T08:03:32;7.40;65.80
12622;DHT22;6376;48.182;-1.644;2022-12-18T08:06:02;7.40;65.80
12622;DHT22;6376;48.182;-1.644;2022-12-18T08:08:29;7.40;65.80
12622;DHT22;6376;48.182;-1.644;2022-12-18T08:10:55;7.30;65.80
12622;DHT22;6376;48.182;-1.644;2022-12-18T08:13:21;7.40;65.90
12622;DHT22;6376;48.182;-1.644;2022-12-18T08:15:48;7.40;66.10
12622;DHT22;6376;48.182;-1.644;2022-12-18T08:18:20;7.40;65.90
12622;DHT22;6376;48.182;-1.644;2022-12-18T08:20:45;7.40;66.00
12622;DHT22;6376;48.182;-1.644;2022-12-18T08:23:11;7.40;65.90
12622;DHT22;6376;48.182;-1.644;2022-12-18T08:25:37;7.40;66.00
12622;DHT22;6376;48.182;-1.644;2022-12-18T08:28:02;7.40;65.90
12622;DHT22;6376;48.182;-1.644;2022-12-18T08:30:28;7.40;66.00
12622;DHT22;6376;48.182;-1.644;2022-12-18T08:32:53;7.40;66.10
12622;DHT22;6376;48.182;-1.644;2022-12-18T08:35:19;7.40;66.10
12622;DHT22;6376;48.182;-1.644;2022-12-18T08:37:45;7.40;66.20
12622;DHT22;6376;48.182;-1.644;2022-12-18T08:40:10;7.40;66.20
12622;DHT22;6376;48.182;-1.644;2022-12-18T08:42:36;7.40;66.20
12622;DHT22;6376;48.182;-1.644;2022-12-18T08:45:20;7.40;66.30
12622;DHT22;6376;48.182;-1.644;2022-12-18T08:47:46;7.40;66.20
12622;DHT22;6376;48.182;-1.644;2022-12-18T08:50:12;7.40;66.30
12622;DHT22;6376;48.182;-1.644;2022-12-18T08:52:37;7.40;66.30
12622;DHT22;6376;48.182;-1.644;2022-12-18T08:55:03;7.30;66.50
12622;DHT22;6376;48.182;-1.644;2022-12-18T08:57:29;7.40;66.50
12622;DHT22;6376;48.182;-1.644;2022-12-18T08:59:55;7.40;66.60
12622;DHT22;6376;48.182;-1.644;2022-12-18T09:02:20;7.40;66.60
12622;DHT22;6376;48.182;-1.644;2022-12-18T09:04:47;7.40;66.50
12622;DHT22;6376;48.182;-1.644;2022-12-18T09:07:13;7.40;66.50
12622;DHT22;6376;48.182;-1.644;2022-12-18T09:09:38;7.40;66.50
12622;DHT22;6376;48.182;-1.644;2022-12-18T09:12:04;7.50;66.50
12622;DHT22;6376;48.182;-1.644;2022-12-18T09:14:30;7.40;66.50
12622;DHT22;6376;48.182;-1.644;2022-12-18T09:16:55;7.50;66.50
12622;DHT22;6376;48.182;-1.644;2022-12-18T09:19:21;7.40;66.60
12622;DHT22;6376;48.182;-1.644;2022-12-18T09:21:47;7.50;66.60
12622;DHT22;6376;48.182;-1.644;2022-12-18T09:24:13;7.40;66.60
12622;DHT22;6376;48.182;-1.644;2022-12-18T09:26:39;7.50;66.60
12622;DHT22;6376;48.182;-1.644;2022-12-18T09:29:05;7.50;66.60
12622;DHT22;6376;48.182;-1.644;2022-12-18T09:31:32;7.50;66.80
12622;DHT22;6376;48.182;-1.644;2022-12-18T09:33:58;7.50;66.70
12622;DHT22;6376;48.182;-1.644;2022-12-18T09:36:24;7.50;66.80
12622;DHT22;6376;48.182;-1.644;2022-12-18T09:38:50;7.50;66.80
12622;DHT22;6376;48.182;-1.644;2022-12-18T09:41:36;7.50;66.80
12622;DHT22;6376;48.182;-1.644;2022-12-18T09:44:13;7.50;66.90
12622;DHT22;6376;48.182;-1.644;2022-12-18T09:46:45;7.50;66.80
12622;DHT22;6376;48.182;-1.644;2022-12-18T09:49:15;7.50;66.80
12622;DHT22;6376;48.182;-1.644;2022-12-18T09:54:38;7.50;66.90
12622;DHT22;6376;48.182;-1.644;2022-12-18T09:57:04;7.50;66.90
12622;DHT22;6376;48.182;-1.644;2022-12-18T09:59:40;7.50;66.90
12622;DHT22;6376;48.182;-1.644;2022-12-18T10:02:24;7.50;66.90
12622;DHT22;6376;48.182;-1.644;2022-12-18T10:10:26;7.50;67.00
12622;DHT22;6376;48.182;-1.644;2022-12-18T10:13:36;7.50;66.90
12622;DHT22;6376;48.182;-1.644;2022-12-18T10:16:23;7.50;66.90
12622;DHT22;6376;48.182;-1.644;2022-12-18T10:21:59;7.60;67.00
12622;DHT22;6376;48.182;-1.644;2022-12-18T10:24:53;7.60;67.00
12622;DHT22;6376;48.182;-1.644;2022-12-18T10:27:25;7.50;67.10
12622;DHT22;6376;48.182;-1.644;2022-12-18T10:29:52;7.60;67.10
12622;DHT22;6376;48.182;-1.644;2022-12-18T10:32:25;7.60;67.10
12622;DHT22;6376;48.182;-1.644;2022-12-18T10:34:52;7.50;67.10
12622;DHT22;6376;48.182;-1.644;2022-12-18T10:37:21;7.50;67.20
12622;DHT22;6376;48.182;-1.644;2022-12-18T10:40:13;7.50;67.40
12622;DHT22;6376;48.182;-1.644;2022-12-18T10:42:39;7.50;67.40
12622;DHT22;6376;48.182;-1.644;2022-12-18T10:45:16;7.50;67.30
12622;DHT22;6376;48.182;-1.644;2022-12-18T10:47:47;7.60;67.40
12622;DHT22;6376;48.182;-1.644;2022-12-18T10:50:33;7.50;67.30
12622;DHT22;6376;48.182;-1.644;2022-12-18T10:53:01;7.50;67.40
12622;DHT22;6376;48.182;-1.644;2022-12-18T10:55:38;7.60;67.40
12622;DHT22;6376;48.182;-1.644;2022-12-18T10:58:28;7.50;67.40
12622;DHT22;6376;48.182;-1.644;2022-12-18T11:01:14;7.50;67.50
12622;DHT22;6376;48.182;-1.644;2022-12-18T11:08:38;7.60;67.60
12622;DHT22;6376;48.182;-1.644;2022-12-18T11:11:20;7.50;67.70
12622;DHT22;6376;48.182;-1.644;2022-12-18T11:14:02;7.50;67.60
12622;DHT22;6376;48.182;-1.644;2022-12-18T11:16:34;7.60;67.60
12622;DHT22;6376;48.182;-1.644;2022-12-18T11:19:26;7.60;67.70
12622;DHT22;6376;48.182;-1.644;2022-12-18T11:21:54;7.60;67.70
12622;DHT22;6376;48.182;-1.644;2022-12-18T11:26:54;7.60;67.80
12622;DHT22;6376;48.182;-1.644;2022-12-18T11:29:28;7.60;67.70
12622;DHT22;6376;48.182;-1.644;2022-12-18T11:32:27;7.60;67.70
12622;DHT22;6376;48.182;-1.644;2022-12-18T11:35:12;7.60;67.80
12622;DHT22;6376;48.182;-1.644;2022-12-18T11:37:43;7.60;68.00
12622;DHT22;6376;48.182;-1.644;2022-12-18T11:40:14;7.60;67.80
12622;DHT22;6376;48.182;-1.644;2022-12-18T11:42:54;7.60;67.80
12622;DHT22;6376;48.182;-1.644;2022-12-18T11:45:28;7.60;67.90
12622;DHT22;6376;48.182;-1.644;2022-12-18T11:48:23;7.60;67.80
12622;DHT22;6376;48.182;-1.644;2022-12-18T11:50:58;7.60;68.00
12622;DHT22;6376;48.182;-1.644;2022-12-18T11:53:26;7.60;68.00
12622;DHT22;6376;48.182;-1.644;2022-12-18T11:56:13;7.60;68.00
12622;DHT22;6376;48.182;-1.644;2022-12-18T11:58:47;7.60;68.10
12622;DHT22;6376;48.182;-1.644;2022-12-18T12:03:51;7.60;68.00
12622;DHT22;6376;48.182;-1.644;2022-12-18T12:06:55;7.60;68.10
12622;DHT22;6376;48.182;-1.644;2022-12-18T12:15:10;7.60;68.30
12622;DHT22;6376;48.182;-1.644;2022-12-18T12:17:53;7.70;68.20
12622;DHT22;6376;48.182;-1.644;2022-12-18T12:20:24;7.60;68.10
12622;DHT22;6376;48.182;-1.644;2022-12-18T12:23:26;7.60;68.40
12622;DHT22;6376;48.182;-1.644;2022-12-18T12:25:59;7.70;68.40
12622;DHT22;6376;48.182;-1.644;2022-12-18T12:29:21;7.70;68.60
12622;DHT22;6376;48.182;-1.644;2022-12-18T12:34:22;7.70;68.60
12622;DHT22;6376;48.182;-1.644;2022-12-18T12:39:18;7.60;68.50
12622;DHT22;6376;48.182;-1.644;2022-12-18T12:41:46;7.70;68.40
12622;DHT22;6376;48.182;-1.644;2022-12-18T12:44:39;7.70;68.40
12622;DHT22;6376;48.182;-1.644;2022-12-18T12:47:18;7.70;68.60
12622;DHT22;6376;48.182;-1.644;2022-12-18T12:49:46;7.60;68.90
12622;DHT22;6376;48.182;-1.644;2022-12-18T12:52:31;7.70;68.90
12622;DHT22;6376;48.182;-1.644;2022-12-18T12:55:00;7.70;68.80
12622;DHT22;6376;48.182;-1.644;2022-12-18T12:58:16;7.70;68.70
12622;DHT22;6376;48.182;-1.644;2022-12-18T13:01:09;7.70;68.60
12622;DHT22;6376;48.182;-1.644;2022-12-18T13:04:01;7.70;68.70
12622;DHT22;6376;48.182;-1.644;2022-12-18T13:09:14;7.70;68.70
12622;DHT22;6376;48.182;-1.644;2022-12-18T13:11:40;7.70;68.70
12622;DHT22;6376;48.182;-1.644;2022-12-18T13:14:31;7.70;68.60
12622;DHT22;6376;48.182;-1.644;2022-12-18T13:19:41;7.70;68.60
12622;DHT22;6376;48.182;-1.644;2022-12-18T13:22:22;7.70;69.00
12622;DHT22;6376;48.182;-1.644;2022-12-18T13:24:48;7.70;68.80
12622;DHT22;6376;48.182;-1.644;2022-12-18T13:27:45;7.80;68.70
12622;DHT22;6376;48.182;-1.644;2022-12-18T13:38:35;7.80;68.80
12622;DHT22;6376;48.182;-1.644;2022-12-18T13:43:42;7.80;68.80
12622;DHT22;6376;48.182;-1.644;2022-12-18T13:51:20;7.80;68.70
12622;DHT22;6376;48.182;-1.644;2022-12-18T13:53:50;7.80;69.10
12622;DHT22;6376;48.182;-1.644;2022-12-18T13:56:17;7.80;69.00
12622;DHT22;6376;48.182;-1.644;2022-12-18T13:58:43;7.80;68.70
12622;DHT22;6376;48.182;-1.644;2022-12-18T14:01:23;7.80;68.70
12622;DHT22;6376;48.182;-1.644;2022-12-18T14:03:49;7.80;69.00
12622;DHT22;6376;48.182;-1.644;2022-12-18T14:06:16;7.80;68.80
12622;DHT22;6376;48.182;-1.644;2022-12-18T14:08:42;7.80;69.00
12622;DHT22;6376;48.182;-1.644;2022-12-18T14:11:20;7.80;69.10
12622;DHT22;6376;48.182;-1.644;2022-12-18T14:13:47;7.80;68.80
12622;DHT22;6376;48.182;-1.644;2022-12-18T14:16:14;7.80;69.10
12622;DHT22;6376;48.182;-1.644;2022-12-18T14:18:45;7.80;68.80
12622;DHT22;6376;48.182;-1.644;2022-12-18T14:21:38;7.80;69.00
12622;DHT22;6376;48.182;-1.644;2022-12-18T14:24:17;7.80;68.80
12622;DHT22;6376;48.182;-1.644;2022-12-18T14:26:44;7.90;69.00
12622;DHT22;6376;48.182;-1.644;2022-12-18T14:29:30;7.80;69.40
12622;DHT22;6376;48.182;-1.644;2022-12-18T14:34:50;7.90;69.30
12622;DHT22;6376;48.182;-1.644;2022-12-18T14:37:20;7.90;69.40
12622;DHT22;6376;48.182;-1.644;2022-12-18T14:39:54;7.90;69.30
12622;DHT22;6376;48.182;-1.644;2022-12-18T14:42:20;7.90;69.20
12622;DHT22;6376;48.182;-1.644;2022-12-18T14:44:46;7.90;69.50
12622;DHT22;6376;48.182;-1.644;2022-12-18T14:47:15;7.90;69.30
12622;DHT22;6376;48.182;-1.644;2022-12-18T14:49:42;7.90;69.70
12622;DHT22;6376;48.182;-1.644;2022-12-18T14:52:29;7.90;70.00
12622;DHT22;6376;48.182;-1.644;2022-12-18T14:54:56;7.90;69.10
12622;DHT22;6376;48.182;-1.644;2022-12-18T14:57:24;7.90;69.30
12622;DHT22;6376;48.182;-1.644;2022-12-18T14:59:51;7.90;69.30
12622;DHT22;6376;48.182;-1.644;2022-12-18T15:02:23;7.90;69.60
12622;DHT22;6376;48.182;-1.644;2022-12-18T15:07:44;7.90;69.30
12622;DHT22;6376;48.182;-1.644;2022-12-18T15:10:20;7.90;69.50
12622;DHT22;6376;48.182;-1.644;2022-12-18T15:13:06;7.90;69.50
12622;DHT22;6376;48.182;-1.644;2022-12-18T15:26:02;8.00;69.30
12622;DHT22;6376;48.182;-1.644;2022-12-18T15:33:33;8.00;69.40
12622;DHT22;6376;48.182;-1.644;2022-12-18T15:36:00;8.00;69.40
12622;DHT22;6376;48.182;-1.644;2022-12-18T15:38:26;8.00;69.40
12622;DHT22;6376;48.182;-1.644;2022-12-18T15:40:53;8.00;69.80
12622;DHT22;6376;48.182;-1.644;2022-12-18T15:43:21;8.00;69.40
12622;DHT22;6376;48.182;-1.644;2022-12-18T15:46:05;8.10;69.40
12622;DHT22;6376;48.182;-1.644;2022-12-18T15:48:33;8.00;69.20
12622;DHT22;6376;48.182;-1.644;2022-12-18T15:51:00;8.00;69.80
12622;DHT22;6376;48.182;-1.644;2022-12-18T15:53:30;8.00;69.30
12622;DHT22;6376;48.182;-1.644;2022-12-18T15:55:57;8.00;70.10
12622;DHT22;6376;48.182;-1.644;2022-12-18T15:58:42;8.10;69.50
12622;DHT22;6376;48.182;-1.644;2022-12-18T16:01:09;8.10;70.70
12622;DHT22;6376;48.182;-1.644;2022-12-18T16:03:36;8.10;69.30
12622;DHT22;6376;48.182;-1.644;2022-12-18T16:06:01;8.10;69.40
12622;DHT22;6376;48.182;-1.644;2022-12-18T16:08:31;8.10;70.50
12622;DHT22;6376;48.182;-1.644;2022-12-18T16:10:57;8.10;70.00
12622;DHT22;6376;48.182;-1.644;2022-12-18T16:13:23;8.10;69.70
12622;DHT22;6376;48.182;-1.644;2022-12-18T16:15:49;8.10;69.70
12622;DHT22;6376;48.182;-1.644;2022-12-18T16:18:15;8.10;69.80
12622;DHT22;6376;48.182;-1.644;2022-12-18T16:20:40;8.10;70.00
12622;DHT22;6376;48.182;-1.644;2022-12-18T16:23:06;8.10;69.80
12622;DHT22;6376;48.182;-1.644;2022-12-18T16:25:32;8.10;70.70
12622;DHT22;6376;48.182;-1.644;2022-12-18T16:27:58;8.10;70.00
12622;DHT22;6376;48.182;-1.644;2022-12-18T16:30:28;8.10;69.80
12622;DHT22;6376;48.182;-1.644;2022-12-18T16:32:54;8.10;69.90
12622;DHT22;6376;48.182;-1.644;2022-12-18T16:35:20;8.20;69.80
12622;DHT22;6376;48.182;-1.644;2022-12-18T16:37:46;8.20;70.60
12622;DHT22;6376;48.182;-1.644;2022-12-18T16:40:14;8.20;70.20
12622;DHT22;6376;48.182;-1.644;2022-12-18T16:42:41;8.20;70.00
12622;DHT22;6376;48.182;-1.644;2022-12-18T16:45:08;8.20;69.80
12622;DHT22;6376;48.182;-1.644;2022-12-18T16:47:34;8.20;70.00
12622;DHT22;6376;48.182;-1.644;2022-12-18T16:50:00;8.20;69.80
12622;DHT22;6376;48.182;-1.644;2022-12-18T16:52:26;8.20;69.80
12622;DHT22;6376;48.182;-1.644;2022-12-18T16:54:52;8.20;69.80
12622;DHT22;6376;48.182;-1.644;2022-12-18T16:57:20;8.20;70.20
12622;DHT22;6376;48.182;-1.644;2022-12-18T16:59:46;8.20;70.10
12622;DHT22;6376;48.182;-1.644;2022-12-18T17:02:20;8.20;69.90
12622;DHT22;6376;48.182;-1.644;2022-12-18T17:04:46;8.20;70.00
12622;DHT22;6376;48.182;-1.644;2022-12-18T17:07:12;8.30;69.80
12622;DHT22;6376;48.182;-1.644;2022-12-18T17:09:38;8.30;70.00
12622;DHT22;6376;48.182;-1.644;2022-12-18T17:12:04;8.30;69.70
12622;DHT22;6376;48.182;-1.644;2022-12-18T17:14:32;8.30;69.70
12622;DHT22;6376;48.182;-1.644;2022-12-18T17:16:57;8.30;69.70
12622;DHT22;6376;48.182;-1.644;2022-12-18T17:19:25;8.30;69.80
12622;DHT22;6376;48.182;-1.644;2022-12-18T17:21:51;8.30;69.60
12622;DHT22;6376;48.182;-1.644;2022-12-18T17:24:17;8.30;70.70
12622;DHT22;6376;48.182;-1.644;2022-12-18T17:26:44;8.30;70.20
12622;DHT22;6376;48.182;-1.644;2022-12-18T17:29:13;8.30;70.30
12622;DHT22;6376;48.182;-1.644;2022-12-18T17:31:39;8.30;70.00
12622;DHT22;6376;48.182;-1.644;2022-12-18T17:34:09;8.30;70.20
12622;DHT22;6376;48.182;-1.644;2022-12-18T17:36:35;8.30;70.50
12622;DHT22;6376;48.182;-1.644;2022-12-18T17:39:02;8.30;70.30
12622;DHT22;6376;48.182;-1.644;2022-12-18T17:41:29;8.30;70.20
12622;DHT22;6376;48.182;-1.644;2022-12-18T17:43:59;8.40;70.20